Time;durP1;ratioP1;P1;durP2;ratioP2;P2;SDS_P1;SDS_P2;PMS_P1;PMS_P2;Temp;Humidity;BMP_temperature;BMP_pressure;BME280_temperature;BME280_humidity;BME280_pressure;Samples;Min_cycle;Max_cycle;Signal;HPM_P1;HPM_P2
2023/06/20 00:00:25;;;;;;;16.67;10.88;;;;;;;;;;5095060;28;20443;-70
2023/06/20 00:02:50;;;;;;;16.00;10.25;;;19.40;99.90;;;;;;5075326;28;20564;-70
2023/06/20 00:05:17;;;;;;;14.75;9.93;;;;;;;;;;5074728;28;20127;-70
2023/06/20 00:07:43;;;;;;;16.40;10.27;;;;;;;;;;5074595;28;20051;-70
2023/06/20 00:10:09;;;;;;;17.88;10.95;;;19.60;99.90;;;;;;5081273;28;20131;-70
2023/06/20 00:12:35;;;;;;;15.50;10.40;;;;;;;;;;5076934;28;20055;-70
2023/06/20 00:15:01;;;;;;;17.05;10.82;;;19.40;99.90;;;;;;5074682;28;20093;-70
2023/06/20 00:17:26;;;;;;;18.35;11.32;;;20.50;98.80;;;;;;5092212;28;20055;-71
2023/06/20 00:19:52;;;;;;;18.45;11.27;;;18.60;99.90;;;;;;5095007;28;20461;-70
2023/06/20 00:22:18;;;;;;;18.50;11.85;;;19.10;99.90;;;;;;5078875;28;20165;-70
2023/06/20 00:24:44;;;;;;;19.52;11.27;;;;;;;;;;5059667;28;20040;-70
2023/06/20 00:27:10;;;;;;;15.35;10.23;;;;;;;;;;5094304;28;20480;-72
2023/06/20 00:29:36;;;;;;;17.45;11.55;;;;;;;;;;5094513;28;20040;-73
2023/06/20 00:32:03;;;;;;;16.58;11.48;;;;;;;;;;5093877;28;20119;-73
2023/06/20 00:34:28;;;;;;;23.95;12.80;;;18.20;99.90;;;;;;5068747;28;20392;-73
2023/06/20 00:36:54;;;;;;;19.20;12.73;;;;;;;;;;5067150;28;20043;-73
2023/06/20 00:39:20;;;;;;;19.50;12.45;;;18.70;99.90;;;;;;5094211;28;20081;-73
2023/06/20 00:41:46;;;;;;;20.85;12.32;;;;;;;;;;5076900;28;20044;-73
2023/06/20 00:44:12;;;;;;;17.98;11.93;;;;;;;;;;5093804;28;20136;-73
2023/06/20 00:46:40;;;;;;;19.75;12.10;;;18.80;99.90;;;;;;5094245;28;20032;-73
2023/06/20 00:49:08;;;;;;;21.35;12.48;;;18.80;99.00;;;;;;5094165;28;20071;-73
2023/06/20 00:51:37;;;;;;;20.17;12.30;;;20.10;99.90;;;;;;5088457;28;20401;-73
2023/06/20 00:54:03;;;;;;;23.02;13.40;;;18.80;99.00;;;;;;5073945;28;20032;-73
2023/06/20 00:56:29;;;;;;;22.00;13.13;;;17.90;99.00;;;;;;5073716;28;20425;-72
2023/06/20 00:58:55;;;;;;;20.60;12.82;;;19.60;99.90;;;;;;5073633;28;20488;-73
2023/06/20 01:01:21;;;;;;;22.90;13.15;;;18.50;99.90;;;;;;5082857;28;20160;-73
2023/06/20 01:03:50;;;;;;;29.20;13.73;;;18.00;99.90;;;;;;5093487;28;20060;-70
2023/06/20 01:06:23;;;;;;;22.30;13.50;;;18.60;99.90;;;;;;5093215;28;20169;-70
2023/06/20 01:09:01;;;;;;;21.83;13.63;;;18.90;99.70;;;;;;5076703;28;20044;-73
2023/06/20 01:11:45;;;;;;;25.40;14.40;;;18.80;99.90;;;;;;5093051;28;20086;-73
2023/06/20 01:14:30;;;;;;;22.42;13.50;;;18.10;99.90;;;;;;5063453;28;20040;-73
2023/06/20 01:17:22;;;;;;;25.95;14.52;;;18.70;98.80;;;;;;5061840;28;20523;-73
2023/06/20 01:20:09;;;;;;;22.17;13.55;;;19.90;99.90;;;;;;5093946;28;20048;-73
2023/06/20 01:23:01;;;;;;;21.77;13.82;;;18.70;98.90;;;;;;5083862;28;20148;-73
2023/06/20 01:25:40;;;;;;;23.17;14.03;;;18.90;99.10;;;;;;5087962;28;20118;-72
2023/06/20 01:28:43;;;;;;;25.10;14.07;;;18.50;99.90;;;;;;5077487;28;20190;-73
2023/06/20 01:31:16;;;;;;;;;;;18.90;99.90;;;;;;5063297;28;20521;-70
2023/06/20 01:33:56;;;;;;;21.42;13.23;;;17.70;99.90;;;;;;5076416;28;19996;-70
2023/06/20 01:36:24;;;;;;;25.85;13.63;;;19.80;99.90;;;;;;5056667;28;20106;-69
2023/06/20 01:38:56;;;;;;;24.80;14.60;;;19.40;99.90;;;;;;5086446;28;20036;-69
2023/06/20 01:41:24;;;;;;;24.88;14.10;;;18.70;99.90;;;;;;5074267;28;20120;-69
2023/06/20 01:43:55;;;;;;;21.85;13.75;;;19.40;99.90;;;;;;5090405;28;20044;-69
2023/06/20 01:46:22;;;;;;;23.40;14.23;;;18.80;99.90;;;;;;5076174;28;20044;-69
2023/06/20 01:48:51;;;;;;;23.02;14.88;;;18.30;99.90;;;;;;5078713;28;20523;-70
2023/06/20 01:51:18;;;;;;;22.70;15.07;;;18.70;99.90;;;;;;5085606;28;20036;-69
2023/06/20 01:53:45;;;;;;;24.77;14.60;;;19.20;99.90;;;;;;5072974;28;20041;-69
2023/06/20 01:56:12;;;;;;;20.77;14.45;;;19.00;99.90;;;;;;5072911;28;20052;-69
2023/06/20 01:58:42;;;;;;;23.35;14.55;;;19.30;99.90;;;;;;5085147;28;20391;-71
2023/06/20 02:01:09;;;;;;;22.63;14.75;;;17.70;99.90;;;;;;5079466;28;20021;-72
2023/06/20 02:03:35;;;;;;;24.90;15.10;;;17.40;99.90;;;;;;5088132;28;20101;-72
2023/06/20 02:06:02;;;;;;;23.80;14.63;;;18.60;99.90;;;;;;5091925;28;20052;-72
2023/06/20 02:08:30;;;;;;;23.48;14.73;;;19.80;99.90;;;;;;5085290;28;20139;-72
2023/06/20 02:10:57;;;;;;;29.77;16.55;;;17.70;99.90;;;;;;5072388;28;20094;-73
2023/06/20 02:13:23;;;;;;;27.25;16.13;;;18.60;99.90;;;;;;5082658;28;20118;-73
2023/06/20 02:15:53;;;;;;;24.90;15.32;;;19.70;99.90;;;;;;5075837;28;20135;-73
2023/06/20 02:18:20;;;;;;;25.95;14.98;;;19.00;99.90;;;;;;5083081;28;20049;-73
2023/06/20 02:20:54;;;;;;;26.42;16.02;;;19.70;99.90;;;;;;5091768;28;20036;-73
2023/06/20 02:23:28;;;;;;;23.73;15.68;;;18.80;99.90;;;;;;5083900;28;20051;-70
2023/06/20 02:26:07;;;;;;;26.83;16.27;;;17.60;99.90;;;;;;5072159;28;20555;-70
2023/06/20 02:28:33;;;;;;;23.63;14.43;;;;;;;;;;5081993;28;20396;-70
2023/06/20 02:31:00;;;;;;;28.30;15.43;;;19.70;99.90;;;;;;5092240;28;20532;-70
2023/06/20 02:33:32;;;;;;;23.92;14.68;;;17.90;99.90;;;;;;5083377;28;20091;-70
2023/06/20 02:36:00;;;;;;;22.13;16.40;;;17.90;99.90;;;;;;5092284;28;20542;-70
2023/06/20 02:38:26;;;;;;;26.88;15.82;;;18.20;99.90;;;;;;5084818;28;20032;-70
2023/06/20 02:40:52;;;;;;;26.73;16.42;;;17.70;99.90;;;;;;5071881;28;20051;-70
2023/06/20 02:43:18;;;;;;;24.85;15.70;;;;;;;;;;5081371;28;20040;-70
2023/06/20 02:45:51;;;;;;;26.45;15.45;;;17.50;99.90;;;;;;5071880;28;20045;-70
2023/06/20 02:48:28;;;;;;;24.27;15.73;;;18.40;99.90;;;;;;5076777;28;20044;-70
2023/06/20 02:51:07;;;;;;;25.33;15.65;;;18.70;99.90;;;;;;5061701;28;20130;-70
2023/06/20 02:54:13;;;;;;;26.05;16.40;;;17.80;99.90;;;;;;5077481;28;20562;-70
2023/06/20 02:56:43;;;;;;;22.67;14.70;;;18.60;99.90;;;;;;5093437;28;20047;-70
2023/06/20 02:59:10;;;;;;;19.55;13.55;;;18.20;99.90;;;;;;5080765;28;20473;-70
2023/06/20 03:01:39;;;;;;;25.55;14.68;;;18.50;99.90;;;;;;5080840;28;20123;-70
2023/06/20 03:04:07;;;;;;;23.73;14.68;;;18.70;99.90;;;;;;5074136;28;20080;-70
2023/06/20 03:06:37;;;;;;;22.63;14.30;;;18.60;99.90;;;;;;5054976;28;20070;-70
2023/06/20 03:09:04;;;;;;;22.05;13.82;;;17.40;99.90;;;;;;5079792;28;20442;-70
2023/06/20 03:11:30;;;;;;;20.23;13.52;;;19.30;99.90;;;;;;5075685;28;20055;-70
2023/06/20 03:13:56;;;;;;;23.42;13.57;;;19.20;99.90;;;;;;5062001;28;20111;-70
2023/06/20 03:16:26;;;;;;;24.67;13.73;;;;;;;;;;5092024;28;20123;-70
2023/06/20 03:18:52;;;;;;;20.30;12.95;;;;;;;;;;5087624;28;20044;-70
2023/06/20 03:21:19;;;;;;;19.92;12.95;;;19.70;99.90;;;;;;5072760;28;20043;-69
2023/06/20 03:23:45;;;;;;;19.42;11.90;;;;;;;;;;5074462;28;20068;-70
2023/06/20 03:26:11;;;;;;;21.67;12.88;;;19.60;99.90;;;;;;5075833;28;20076;-70
2023/06/20 03:28:37;;;;;;;19.40;12.18;;;;;;;;;;5092183;28;20094;-70
2023/06/20 03:31:03;;;;;;;20.20;11.43;;;19.60;99.90;;;;;;5070778;28;20381;-70
2023/06/20 03:33:30;;;;;;;23.65;12.45;;;;;;;;;;5062688;28;20039;-70
2023/06/20 03:35:56;;;;;;;17.95;10.98;;;19.30;99.90;;;;;;5079166;28;20109;-69
2023/06/20 03:38:22;;;;;;;19.63;11.95;;;;;;;;;;5078386;28;20436;-70
2023/06/20 03:40:49;;;;;;;18.20;10.70;;;;;;;;;;5083653;28;20403;-70
2023/06/20 03:43:15;;;;;;;21.30;10.77;;;18.10;99.90;;;;;;5072425;28;20044;-70
2023/06/20 03:45:41;;;;;;;16.10;10.45;;;;;;;;;;5056863;28;20048;-70
2023/06/20 03:48:07;;;;;;;17.27;10.32;;;19.60;99.90;;;;;;5087569;28;20302;-71
2023/06/20 03:50:33;;;;;;;15.18;10.10;;;;;;;;;;5078924;28;20116;-70
2023/06/20 03:52:59;;;;;;;17.50;10.32;;;18.10;99.90;;;;;;5057365;28;20039;-70
2023/06/20 03:55:24;;;;;;;14.07;9.32;;;17.20;99.90;;;;;;5091178;28;20044;-70
2023/06/20 03:57:50;;;;;;;17.10;9.68;;;;;;;;;;5086227;28;20048;-70
2023/06/20 04:00:16;;;;;;;14.98;9.52;;;19.50;99.90;;;;;;5093441;28;20491;-70
2023/06/20 04:02:44;;;;;;;15.98;9.05;;;;;;;;;;5078522;28;20048;-70
2023/06/20 04:05:10;;;;;;;14.57;8.90;;;18.40;99.90;;;;;;5073940;28;20036;-70
2023/06/20 04:07:36;;;;;;;12.25;9.13;;;;;;;;;;5084944;28;20066;-70
2023/06/20 04:10:02;;;;;;;17.48;9.05;;;17.40;99.90;;;;;;5060188;28;20094;-70
2023/06/20 04:12:29;;;;;;;16.48;9.00;;;;;;;;;;5076532;28;20049;-70
2023/06/20 04:14:55;;;;;;;17.23;9.80;;;18.20;99.90;;;;;;5091001;28;20122;-70
2023/06/20 04:17:21;;;;;;;12.98;8.63;;;;;;;;;;5075966;28;20143;-70
2023/06/20 04:19:47;;;;;;;17.10;8.60;;;17.60;99.90;;;;;;5089622;28;20040;-70
2023/06/20 04:22:14;;;;;;;17.88;9.18;;;17.40;99.90;;;;;;5089256;28;20040;-70
2023/06/20 04:24:40;;;;;;;15.50;8.20;;;17.50;99.90;;;;;;5074345;28;20106;-70
2023/06/20 04:27:06;;;;;;;11.95;8.02;;;;;;;;;;5081217;28;20036;-70
2023/06/20 04:29:32;;;;;;;12.30;8.18;;;17.90;99.90;;;;;;5092678;28;20071;-70
2023/06/20 04:31:58;;;;;;;12.90;7.60;;;;;;;;;;5072570;28;20075;-70
2023/06/20 04:34:24;;;;;;;15.75;8.25;;;19.20;99.90;;;;;;5094414;28;20047;-71
2023/06/20 04:36:54;;;;;;;17.23;8.20;;;17.50;99.90;;;;;;5093194;28;20036;-70
2023/06/20 04:39:19;;;;;;;11.80;7.90;;;18.10;99.90;;;;;;5080820;28;20037;-70
2023/06/20 04:41:45;;;;;;;13.57;8.35;;;19.80;99.90;;;;;;5089516;28;20061;-68
2023/06/20 04:44:11;;;;;;;13.27;8.57;;;19.80;99.90;;;;;;5077269;28;20472;-69
2023/06/20 04:46:37;;;;;;;15.32;8.18;;;;;;;;;;5087035;28;20043;-69
2023/06/20 04:49:03;;;;;;;13.75;7.95;;;;;;;;;;5094152;28;20508;-69
2023/06/20 04:51:28;;;;;;;13.55;7.95;;;18.40;99.90;;;;;;5076688;28;20028;-69
2023/06/20 04:53:54;;;;;;;11.48;8.13;;;;;;;;;;5077403;28;20400;-69
2023/06/20 04:56:22;;;;;;;15.95;8.52;;;17.70;99.90;;;;;;5075241;28;20127;-69
2023/06/20 04:58:48;;;;;;;13.27;7.40;;;18.80;99.90;;;;;;5093524;28;20044;-69
2023/06/20 05:01:14;;;;;;;12.25;8.00;;;;;;;;;;5074724;28;20048;-70
2023/06/20 05:03:42;;;;;;;15.73;8.30;;;19.50;99.90;;;;;;5093907;28;20043;-69
2023/06/20 05:06:08;;;;;;;14.75;8.10;;;17.70;99.90;;;;;;5038556;28;20044;-69
2023/06/20 05:08:35;;;;;;;15.32;7.57;;;18.60;99.90;;;;;;5040578;28;20397;-69
2023/06/20 05:11:01;;;;;;;11.68;7.03;;;18.10;99.90;;;;;;5039622;28;20086;-69
2023/06/20 05:13:27;;;;;;;11.85;7.10;;;;;;;;;;5040548;28;20032;-69
2023/06/20 05:15:53;;;;;;;11.80;7.65;;;;;;;;;;5057363;28;20044;-70
2023/06/20 05:18:18;;;;;;;13.98;7.88;;;17.80;99.90;;;;;;5056741;28;20040;-69
2023/06/20 05:20:44;;;;;;;15.75;7.55;;;18.50;99.90;;;;;;5068901;28;20115;-69
2023/06/20 05:23:10;;;;;;;12.30;7.22;;;18.20;99.90;;;;;;5084919;28;20036;-69
2023/06/20 05:25:37;;;;;;;12.75;9.40;;;;;;;;;;5084098;28;20036;-69
2023/06/20 05:28:03;;;;;;;12.98;8.13;;;19.30;99.90;;;;;;5093711;28;20044;-69
2023/06/20 05:30:28;;;;;;;11.65;8.70;;;19.30;99.90;;;;;;5092894;28;20036;-69
2023/06/20 05:32:55;;;;;;;16.63;8.48;;;;;;;;;;5056648;28;20047;-69
2023/06/20 05:35:21;;;;;;;16.85;8.93;;;;;;;;;;5086880;28;20506;-71
2023/06/20 05:37:49;;;;;;;14.82;8.90;;;;;;;;;;5075600;28;20048;-72
2023/06/20 05:40:15;;;;;;;20.15;10.35;;;18.10;99.70;;;;;;5076778;28;20129;-69
2023/06/20 05:42:41;;;;;;;14.90;9.35;;;19.90;99.90;;;;;;5072061;28;20048;-69
2023/06/20 05:45:08;;;;;;;16.27;9.70;;;19.40;99.90;;;;;;5074077;28;20052;-69
2023/06/20 05:47:33;;;;;;;17.30;11.02;;;18.00;99.90;;;;;;5072858;28;20503;-69
2023/06/20 05:49:59;;;;;;;16.70;10.00;;;18.10;99.90;;;;;;5077709;28;20121;-69
2023/06/20 05:52:25;;;;;;;15.30;10.00;;;20.10;99.90;;;;;;5059817;28;20042;-72
2023/06/20 05:54:53;;;;;;;15.43;9.07;;;18.20;99.90;;;;;;5079306;28;20510;-73
2023/06/20 05:57:20;;;;;;;13.00;9.20;;;19.60;99.90;;;;;;5075893;28;20051;-73
2023/06/20 05:59:46;;;;;;;17.23;9.55;;;;;;;;;;5065299;28;20511;-73
2023/06/20 06:02:12;;;;;;;19.65;9.40;;;;;;;;;;5077667;28;20117;-73
2023/06/20 06:04:38;;;;;;;14.32;9.30;;;;;;;;;;5082326;28;20044;-73
2023/06/20 06:07:07;;;;;;;15.80;9.45;;;18.00;99.90;;;;;;5089792;28;20044;-73
2023/06/20 06:09:33;;;;;;;18.98;10.35;;;19.20;99.90;;;;;;5088256;28;20067;-73
2023/06/20 06:11:59;;;;;;;14.38;9.43;;;19.70;99.90;;;;;;5072499;28;20047;-73
2023/06/20 06:14:25;;;;;;;15.57;9.25;;;;;;;;;;5073606;28;20036;-70
2023/06/20 06:16:51;;;;;;;17.50;9.70;;;;;;;;;;5055972;28;20051;-70
2023/06/20 06:19:19;;;;;;;16.80;9.52;;;19.80;99.90;;;;;;5055998;28;20048;-70
2023/06/20 06:21:45;;;;;;;15.18;10.10;;;;;;;;;;5082292;28;20076;-70
2023/06/20 06:24:11;;;;;;;16.98;9.88;;;18.60;99.90;;;;;;5072445;28;20043;-70
2023/06/20 06:26:37;;;;;;;14.32;9.63;;;;;;;;;;5067287;28;20048;-70
2023/06/20 06:29:04;;;;;;;15.05;9.88;;;;;;;;;;5070873;28;20032;-69
2023/06/20 06:31:31;;;;;;;17.50;9.85;;;19.60;99.90;;;;;;5084346;28;20036;-69
2023/06/20 06:33:59;;;;;;;18.83;9.77;;;20.40;99.90;;;;;;5076146;28;20040;-69
2023/06/20 06:36:25;;;;;;;14.50;9.73;;;18.30;99.90;;;;;;5079111;28;20059;-69
2023/06/20 06:38:51;;;;;;;16.25;10.32;;;20.30;99.90;;;;;;5079658;28;20036;-69
2023/06/20 06:41:18;;;;;;;14.40;10.50;;;20.60;99.90;;;;;;5083701;28;20460;-70
2023/06/20 06:43:45;;;;;;;14.20;9.32;;;19.40;99.90;;;;;;5074666;28;20086;-69
2023/06/20 06:46:10;;;;;;;15.77;9.85;;;19.10;99.90;;;;;;5084099;28;20484;-69
2023/06/20 06:48:36;;;;;;;14.38;9.63;;;20.60;99.90;;;;;;5055212;28;20043;-70
2023/06/20 06:51:03;;;;;;;18.20;9.75;;;18.60;99.90;;;;;;5076368;28;20498;-69
2023/06/20 06:53:29;;;;;;;15.23;9.35;;;;;;;;;;5091637;28;20046;-69
2023/06/20 06:55:55;;;;;;;15.00;10.02;;;19.20;99.90;;;;;;5092116;28;20031;-69
2023/06/20 06:58:21;;;;;;;17.63;10.50;;;;;;;;;;5091999;28;20452;-69
2023/06/20 07:00:47;;;;;;;16.48;10.00;;;;;;;;;;5089145;28;20067;-69
2023/06/20 07:03:15;;;;;;;17.52;10.48;;;20.90;99.90;;;;;;5084995;28;20507;-69
2023/06/20 07:05:40;;;;;;;17.40;9.73;;;19.20;99.90;;;;;;5055992;28;20098;-70
2023/06/20 07:08:07;;;;;;;18.45;9.57;;;;;;;;;;5070565;28;20036;-70
2023/06/20 07:10:32;;;;;;;14.48;9.18;;;19.00;99.90;;;;;;5058184;28;20068;-70
2023/06/20 07:12:58;;;;;;;18.25;9.68;;;;;;;;;;5064907;28;20043;-69
2023/06/20 07:15:24;;;;;;;14.10;10.45;;;21.00;99.90;;;;;;5061552;28;20109;-70
2023/06/20 07:17:50;;;;;;;15.00;9.98;;;;;;;;;;5075897;28;20045;-70
2023/06/20 07:20:17;;;;;;;16.70;10.05;;;19.50;99.90;;;;;;5072634;28;20044;-69
2023/06/20 07:22:45;;;;;;;17.70;10.10;;;21.40;99.90;;;;;;5065139;28;20131;-70
2023/06/20 07:25:11;;;;;;;15.15;9.60;;;20.40;99.30;;;;;;5066263;28;20071;-70
2023/06/20 07:27:37;;;;;;;15.98;11.13;;;21.40;99.90;;;;;;5078551;28;20153;-70
2023/06/20 07:30:03;;;;;;;19.10;10.85;;;19.90;99.90;;;;;;5089235;28;20044;-70
2023/06/20 07:32:29;;;;;;;17.60;10.90;;;20.90;99.90;;;;;;5081269;28;20040;-70
2023/06/20 07:34:55;;;;;;;15.00;10.40;;;21.50;99.90;;;;;;5089770;28;20047;-70
2023/06/20 07:37:21;;;;;;;18.33;11.43;;;;;;;;;;5071486;28;20479;-70
2023/06/20 07:39:48;;;;;;;16.15;11.20;;;;;;;;;;5085941;28;20040;-70
2023/06/20 07:42:14;;;;;;;16.42;10.98;;;19.70;99.90;;;;;;5066379;28;20443;-70
2023/06/20 07:44:40;;;;;;;16.58;10.50;;;;;;;;;;5089333;28;20119;-70
2023/06/20 07:47:06;;;;;;;16.27;10.63;;;20.40;99.90;;;;;;5082736;28;20040;-70
2023/06/20 07:49:32;;;;;;;17.90;10.80;;;20.40;99.90;;;;;;5086762;28;20120;-70
2023/06/20 07:51:58;;;;;;;17.02;11.18;;;;;;;;;;5070893;28;20123;-70
2023/06/20 07:54:25;;;;;;;19.55;11.20;;;;;;;;;;5071207;28;20036;-70
2023/06/20 07:56:51;;;;;;;15.52;11.88;;;21.00;99.90;;;;;;5071440;28;20045;-70
2023/06/20 07:59:17;;;;;;;16.42;11.52;;;21.90;99.90;;;;;;5087556;28;20040;-70
2023/06/20 08:01:43;;;;;;;17.20;11.48;;;22.00;99.90;;;;;;5088009;28;20098;-70
2023/06/20 08:04:09;;;;;;;17.73;10.63;;;22.30;99.90;;;;;;5070360;28;20048;-70
2023/06/20 08:06:34;;;;;;;17.98;11.68;;;20.50;99.90;;;;;;5049165;28;20043;-70
2023/06/20 08:09:01;;;;;;;15.27;11.43;;;;;;;;;;5090468;28;20035;-70
2023/06/20 08:11:26;;;;;;;17.63;11.30;;;21.30;99.90;;;;;;5075973;28;20131;-70
2023/06/20 08:13:52;;;;;;;16.50;11.00;;;;;;;;;;5066568;28;20128;-70
2023/06/20 08:16:18;;;;;;;20.38;12.23;;;22.60;99.90;;;;;;5075760;28;20036;-72
2023/06/20 08:18:44;;;;;;;17.90;11.75;;;21.30;99.90;;;;;;5064473;28;20431;-73
2023/06/20 08:21:10;;;;;;;16.40;11.15;;;;;;;;;;5082522;28;20531;-73
2023/06/20 08:23:36;;;;;;;18.88;11.35;;;22.90;99.90;;;;;;5090633;28;20036;-73
2023/06/20 08:26:02;;;;;;;16.63;11.43;;;;;;;;;;5072432;28;20499;-72
2023/06/20 08:28:27;;;;;;;15.23;11.73;;;22.90;99.80;;;;;;5067471;28;20068;-72
2023/06/20 08:30:53;;;;;;;21.17;12.93;;;22.10;99.60;;;;;;5082900;28;20140;-73
2023/06/20 08:33:20;;;;;;;15.35;12.23;;;;;;;;;;5072441;28;20036;-73
2023/06/20 08:35:46;;;;;;;20.33;12.35;;;23.40;99.90;;;;;;5070614;28;20047;-73
2023/06/20 08:38:12;;;;;;;17.92;12.98;;;23.40;99.90;;;;;;5052874;28;20102;-73
2023/06/20 08:40:39;;;;;;;20.25;13.18;;;22.80;99.90;;;;;;5070710;28;20123;-72
2023/06/20 08:43:05;;;;;;;17.63;12.63;;;22.60;97.20;;;;;;5063269;28;20036;-72
2023/06/20 08:45:31;;;;;;;19.02;12.75;;;23.30;99.90;;;;;;5075408;28;20036;-72
2023/06/20 08:48:00;;;;;;;20.27;12.90;;;;;;;;;;5089709;28;20033;-73
2023/06/20 08:50:26;;;;;;;17.58;13.00;;;22.60;99.90;;;;;;5059594;28;20043;-73
2023/06/20 08:52:55;;;;;;;18.88;12.50;;;23.60;97.90;;;;;;5076708;28;20037;-73
2023/06/20 08:55:22;;;;;;;16.55;12.40;;;23.40;99.90;;;;;;5089389;28;20047;-73
2023/06/20 08:57:51;;;;;;;18.92;12.20;;;;;;;;;;5079165;28;20123;-73
2023/06/20 09:00:21;;;;;;;19.02;13.00;;;23.50;99.90;;;;;;5082836;28;20052;-73
2023/06/20 09:02:48;;;;;;;16.13;11.63;;;22.70;97.60;;;;;;5081513;28;20041;-73
2023/06/20 09:05:15;;;;;;;20.45;13.52;;;;;;;;;;5075161;28;20040;-73
2023/06/20 09:07:41;;;;;;;19.08;13.20;;;22.20;99.90;;;;;;5076539;28;20036;-73
2023/06/20 09:10:11;;;;;;;17.90;13.27;;;23.80;99.90;;;;;;5074225;28;20056;-71
2023/06/20 09:12:58;;;;;;;19.23;12.65;;;23.30;96.20;;;;;;5088448;28;20119;-70
2023/06/20 09:15:27;;;;;;;22.80;13.23;;;24.10;98.30;;;;;;5056899;28;20082;-71
2023/06/20 09:17:54;;;;;;;22.70;12.85;;;23.10;99.90;;;;;;5056792;28;20047;-71
2023/06/20 09:20:25;;;;;;;16.48;12.80;;;24.30;99.90;;;;;;5064821;28;20037;-70
2023/06/20 09:22:51;;;;;;;19.57;13.80;;;;;;;;;;5081236;28;20043;-70
2023/06/20 09:25:22;;;;;;;19.38;11.57;;;24.20;99.90;;;;;;5074096;28;20044;-71
2023/06/20 09:27:48;;;;;;;18.73;12.75;;;23.70;99.30;;;;;;5076332;28;20509;-71
2023/06/20 09:30:14;;;;;;;19.40;13.07;;;23.20;99.90;;;;;;5088989;28;20549;-71
2023/06/20 09:32:42;;;;;;;17.17;12.70;;;24.10;96.30;;;;;;5066094;28;20037;-71
2023/06/20 09:35:12;;;;;;;20.13;13.35;;;24.50;99.90;;;;;;5086942;28;20040;-71
2023/06/20 09:37:56;;;;;;;21.55;12.95;;;24.50;99.90;;;;;;5083025;28;20120;-73
2023/06/20 09:40:22;;;;;;;18.95;12.73;;;24.00;99.80;;;;;;5073093;28;20496;-74
2023/06/20 09:42:55;;;;;;;19.63;12.80;;;24.50;99.90;;;;;;5073868;28;20107;-72
2023/06/20 09:45:20;;;;;;;18.48;11.45;;;23.70;99.60;;;;;;5073089;28;20041;-73
2023/06/20 09:47:47;;;;;;;16.55;11.38;;;23.90;99.40;;;;;;5068702;28;20442;-73
2023/06/20 09:50:19;;;;;;;15.82;11.43;;;24.40;95.70;;;;;;5093151;28;20105;-73
2023/06/20 09:53:00;;;;;;;16.27;10.73;;;24.90;95.70;;;;;;5093216;28;20093;-72
2023/06/20 09:55:26;;;;;;;15.53;11.20;;;;;;;;;;5081081;28;20047;-73
2023/06/20 09:57:59;;;;;;;14.00;10.25;;;24.90;94.20;;;;;;5076142;28;20048;-72
2023/06/20 10:00:27;;;;;;;14.48;11.20;;;;;;;;;;5082987;28;20108;-73
2023/06/20 10:02:54;;;;;;;15.73;11.90;;;25.70;98.50;;;;;;5056756;28;20044;-73
2023/06/20 10:05:21;;;;;;;17.23;11.80;;;25.00;97.10;;;;;;5057313;28;20381;-72
2023/06/20 10:07:49;;;;;;;20.33;11.65;;;25.60;94.10;;;;;;5067363;28;20036;-72
2023/06/20 10:10:16;;;;;;;14.27;11.70;;;25.70;93.80;;;;;;5073727;28;20091;-72
2023/06/20 10:12:46;;;;;;;16.48;11.60;;;25.60;97.20;;;;;;5081826;28;20131;-72
2023/06/20 10:15:16;;;;;;;18.13;10.40;;;26.30;94.80;;;;;;5073524;28;20044;-73
2023/06/20 10:17:46;;;;;;;20.23;10.40;;;25.60;95.70;;;;;;5049356;28;20399;-72
2023/06/20 10:20:33;;;;;;;14.63;10.90;;;25.90;92.20;;;;;;5075520;28;20097;-73
2023/06/20 10:23:05;;;;;;;17.40;9.77;;;26.50;96.90;;;;;;5080077;28;20106;-73
2023/06/20 10:25:32;;;;;;;12.63;8.15;;;26.50;94.30;;;;;;5073097;28;20032;-72
2023/06/20 10:28:01;;;;;;;13.93;9.70;;;26.50;96.30;;;;;;5079266;28;20068;-72
2023/06/20 10:30:46;;;;;;;17.08;10.32;;;26.90;96.20;;;;;;5054111;28;20472;-73
2023/06/20 10:33:12;;;;;;;17.20;10.13;;;26.30;95.90;;;;;;5081617;28;20025;-72
2023/06/20 10:35:53;;;;;;;11.80;8.52;;;27.10;96.10;;;;;;5059936;28;20492;-70
2023/06/20 10:38:19;;;;;;;13.02;7.93;;;26.60;92.40;;;;;;5092222;28;20083;-70
2023/06/20 10:40:45;;;;;;;12.38;8.20;;;;;;;;;;5080692;28;20109;-70
2023/06/20 10:43:18;;;;;;;10.80;8.82;;;27.10;90.10;;;;;;5055241;28;20044;-70
2023/06/20 10:45:57;;;;;;;16.70;10.25;;;27.50;91.20;;;;;;5072648;28;20045;-70
2023/06/20 10:48:24;;;;;;;14.05;8.38;;;27.20;94.60;;;;;;5089106;28;20039;-70
2023/06/20 10:50:51;;;;;;;12.25;9.80;;;;;;;;;;5091586;28;20036;-70
2023/06/20 10:53:18;;;;;;;11.35;9.00;;;27.40;94.70;;;;;;5058323;28;20482;-70
2023/06/20 10:55:43;;;;;;;12.48;9.07;;;27.60;94.40;;;;;;5092193;28;20357;-71
2023/06/20 10:58:09;;;;;;;13.50;9.48;;;;;;;;;;5079220;28;20051;-71
2023/06/20 11:00:36;;;;;;;14.45;9.63;;;;;;;;;;5060163;28;20044;-71
2023/06/20 11:03:01;;;;;;;14.00;9.15;;;27.00;93.70;;;;;;5079996;28;20480;-72
2023/06/20 11:05:28;;;;;;;12.40;9.20;;;27.70;90.10;;;;;;5067533;28;20163;-72
2023/06/20 11:07:59;;;;;;;14.02;9.20;;;27.50;90.00;;;;;;5090511;28;20047;-71
2023/06/20 11:10:30;;;;;;;17.38;11.23;;;28.10;93.70;;;;;;5063293;28;20056;-71
2023/06/20 11:12:57;;;;;;;12.63;8.60;;;28.00;89.50;;;;;;5091325;28;20036;-71
2023/06/20 11:15:26;;;;;;;12.55;7.85;;;27.60;88.10;;;;;;5054626;28;20044;-70
2023/06/20 11:17:53;;;;;;;15.23;7.75;;;27.40;92.80;;;;;;5090111;28;20051;-71
2023/06/20 11:20:21;;;;;;;11.73;8.20;;;28.40;93.00;;;;;;5073662;28;20024;-71
2023/06/20 11:22:48;;;;;;;12.85;8.27;;;28.30;93.10;;;;;;5054973;28;20499;-71
2023/06/20 11:25:28;;;;;;;8.30;7.13;;;27.70;92.30;;;;;;5089303;28;20040;-75
2023/06/20 11:27:55;;;;;;;11.60;7.32;;;28.20;92.40;;;;;;5074571;28;20036;-71
2023/06/20 11:30:29;;;;;;;10.13;7.53;;;28.60;84.40;;;;;;5072725;28;20427;-71
2023/06/20 11:33:02;;;;;;;12.10;7.68;;;28.60;92.10;;;;;;5091569;28;20431;-71
2023/06/20 11:35:49;;;;;;;12.07;7.20;;;28.40;91.70;;;;;;5056324;28;20047;-71
2023/06/20 11:38:24;;;;;;;9.85;7.28;;;28.70;91.40;;;;;;5073006;28;20059;-71
2023/06/20 11:41:08;;;;;;;12.23;7.13;;;28.60;90.00;;;;;;5080723;28;20480;-72
2023/06/20 11:43:39;;;;;;;13.82;6.85;;;28.80;91.00;;;;;;5033555;28;20040;-69
2023/06/20 11:46:06;;;;;;;12.35;7.75;;;28.70;90.90;;;;;;5082379;28;20044;-70
2023/06/20 11:48:32;;;;;;;10.05;6.90;;;;;;;;;;5082672;28;20039;-70
2023/06/20 11:51:07;;;;;;;11.35;7.38;;;28.80;82.40;;;;;;5083777;28;20032;-70
2023/06/20 11:53:36;;;;;;;8.27;6.97;;;28.90;81.90;;;;;;5072057;28;20380;-72
2023/06/20 11:56:10;;;;;;;9.93;6.93;;;29.00;90.20;;;;;;5080460;28;20041;-72
2023/06/20 11:58:49;;;;;;;9.30;7.18;;;29.10;90.00;;;;;;5075316;28;20102;-73
2023/06/20 12:01:20;;;;;;;15.00;7.50;;;28.90;89.60;;;;;;5060897;28;20518;-73
2023/06/20 12:03:46;;;;;;;10.18;7.60;;;;;;;;;;5083477;28;20051;-73
2023/06/20 12:06:29;;;;;;;10.18;7.47;;;29.60;88.80;;;;;;5095072;28;20080;-73
2023/06/20 12:09:08;;;;;;;12.10;6.78;;;29.90;77.80;;;;;;5094370;28;20044;-73
2023/06/20 12:11:36;;;;;;;10.50;6.32;;;29.90;81.30;;;;;;5081196;28;20131;-73
2023/06/20 12:14:02;;;;;;;7.80;6.60;;;29.90;87.20;;;;;;5078385;28;20383;-73
2023/06/20 12:16:28;;;;;;;9.65;6.50;;;29.90;86.80;;;;;;5069453;28;20040;-73
2023/06/20 12:18:59;;;;;;;8.32;6.05;;;30.10;87.30;;;;;;5067333;28;20476;-74
2023/06/20 12:21:25;;;;;;;14.43;6.32;;;29.80;85.50;;;;;;5046621;28;20484;-72
2023/06/20 12:23:51;;;;;;;12.73;6.63;;;30.20;85.40;;;;;;5095217;28;20065;-70
2023/06/20 12:26:17;;;;;;;9.85;6.45;;;30.50;85.30;;;;;;5091264;28;20587;-73
2023/06/20 12:28:43;;;;;;;8.63;6.40;;;30.40;84.60;;;;;;5066054;28;20040;-73
2023/06/20 12:31:11;;;;;;;13.25;7.22;;;30.50;84.00;;;;;;5093238;28;20430;-73
2023/06/20 12:33:37;;;;;;;9.98;6.85;;;30.60;83.70;;;;;;5076169;28;20032;-74
2023/06/20 12:36:04;;;;;;;13.70;6.35;;;30.80;83.60;;;;;;5062129;28;20433;-74
2023/06/20 12:38:30;;;;;;;7.70;6.65;;;30.40;82.90;;;;;;5047691;28;20043;-74
2023/06/20 12:41:00;;;;;;;12.07;7.40;;;31.00;82.80;;;;;;5057786;28;20086;-74
2023/06/20 12:43:26;;;;;;;9.70;7.22;;;31.10;83.10;;;;;;5057497;28;20048;-74
2023/06/20 12:45:58;;;;;;;11.63;7.57;;;;;;;;;;5081208;28;20458;-70
2023/06/20 12:48:25;;;;;;;9.70;7.57;;;31.00;82.20;;;;;;5085652;28;20040;-69
2023/06/20 12:50:52;;;;;;;13.88;8.15;;;30.60;82.70;;;;;;5079298;28;20028;-69
2023/06/20 12:53:18;;;;;;;13.13;7.50;;;30.80;78.90;;;;;;5087183;28;20047;-70
2023/06/20 12:55:44;;;;;;;8.95;7.95;;;31.20;82.40;;;;;;5069742;28;20492;-70
2023/06/20 12:58:13;;;;;;;9.45;7.97;;;30.90;72.00;;;;;;5057560;28;20055;-70
2023/06/20 13:00:41;;;;;;;11.43;8.23;;;31.10;72.80;;;;;;5057856;28;20052;-70